createdAt,value
2018-12-12T00:00:09.671Z,5.81
2018-12-12T00:02:02.564Z,5.82
2018-12-12T00:03:02.576Z,5.79
2018-12-12T00:04:55.478Z,5.78
2018-12-12T00:05:55.480Z,5.83
2018-12-12T00:07:48.373Z,5.89
2018-12-12T00:08:48.385Z,5.83
2018-12-12T00:10:41.287Z,5.89
2018-12-12T00:11:41.290Z,5.82
2018-12-12T00:13:34.183Z,5.82
2018-12-12T00:14:34.194Z,5.86
2018-12-12T00:16:27.092Z,5.82
2018-12-12T00:17:27.096Z,5.90
2018-12-12T00:19:19.990Z,5.86
2018-12-12T00:20:20.003Z,5.85
2018-12-12T00:22:12.904Z,5.83
2018-12-12T00:23:12.907Z,5.85
2018-12-12T00:25:05.816Z,5.90
2018-12-12T00:26:05.814Z,5.82
2018-12-12T00:27:58.707Z,5.78
2018-12-12T00:28:58.717Z,5.78
2018-12-12T00:30:51.620Z,5.68
2018-12-12T00:31:51.623Z,5.60
2018-12-12T00:33:44.516Z,5.46
2018-12-12T00:34:44.526Z,5.40
2018-12-12T00:36:37.431Z,5.42
2018-12-12T00:37:37.431Z,5.38
2018-12-12T00:39:30.326Z,5.46
2018-12-12T00:40:30.335Z,5.48
2018-12-12T00:42:23.234Z,5.64
2018-12-12T00:43:23.237Z,5.61
2018-12-12T00:45:16.132Z,5.72
2018-12-12T00:46:16.141Z,5.76
2018-12-12T00:48:09.042Z,5.78
2018-12-12T00:49:09.046Z,5.76
2018-12-12T00:51:01.945Z,5.78
2018-12-12T00:52:01.948Z,5.76
2018-12-12T00:53:54.909Z,5.75
2018-12-12T00:54:54.851Z,5.79
2018-12-12T00:56:47.751Z,5.82
2018-12-12T00:57:47.754Z,5.82
2018-12-12T00:59:40.646Z,5.86
2018-12-12T01:00:40.657Z,5.79
2018-12-12T01:02:33.559Z,5.97
2018-12-12T01:03:33.562Z,5.99
2018-12-12T01:05:26.455Z,6.00
2018-12-12T01:06:26.466Z,5.97
2018-12-12T01:08:19.861Z,5.99
2018-12-12T01:09:19.865Z,6.04
2018-12-12T01:11:12.765Z,6.01
2018-12-12T01:12:12.768Z,5.99
2018-12-12T01:14:05.661Z,5.93
2018-12-12T01:15:05.673Z,5.91
2018-12-12T01:16:58.574Z,5.96
2018-12-12T01:17:58.578Z,5.93
2018-12-12T01:19:51.472Z,5.91
2018-12-12T01:20:51.483Z,5.90
2018-12-12T01:22:44.389Z,5.90
2018-12-12T01:23:44.391Z,5.94
2018-12-12T01:25:37.283Z,6.00
2018-12-12T01:26:37.294Z,6.00
2018-12-12T01:28:30.197Z,5.97
2018-12-12T01:29:30.198Z,5.94
2018-12-12T01:31:23.091Z,6.00
2018-12-12T01:32:23.102Z,6.03
2018-12-12T01:34:16.005Z,5.90
2018-12-12T01:35:16.007Z,5.99
2018-12-12T01:37:09.400Z,5.97
2018-12-12T01:38:09.408Z,5.91
2018-12-12T01:40:02.296Z,5.97
2018-12-12T01:41:02.309Z,5.91
2018-12-12T01:42:55.210Z,5.94
2018-12-12T01:43:55.213Z,5.89
2018-12-12T01:45:48.107Z,5.76
2018-12-12T01:46:48.119Z,5.79
2018-12-12T01:48:41.021Z,5.75
2018-12-12T01:49:41.057Z,5.76
2018-12-12T01:51:33.914Z,5.61
2018-12-12T01:52:33.925Z,5.68
2018-12-12T01:54:26.845Z,5.68
2018-12-12T01:55:26.850Z,5.64
2018-12-12T01:57:19.808Z,5.65
2018-12-12T01:58:19.754Z,5.60
2018-12-12T02:00:12.646Z,5.57
2018-12-12T02:01:12.659Z,5.57
2018-12-12T02:03:05.564Z,5.56
2018-12-12T02:04:05.565Z,5.49
2018-12-12T02:05:58.457Z,5.43
2018-12-12T02:06:58.468Z,5.49
2018-12-12T02:08:51.370Z,5.40
2018-12-12T02:09:51.373Z,5.43
2018-12-12T02:11:44.264Z,5.25
2018-12-12T02:12:44.276Z,5.27
2018-12-12T02:14:37.176Z,5.24
2018-12-12T02:15:37.180Z,5.28
2018-12-12T02:17:30.072Z,5.33
2018-12-12T02:18:30.082Z,5.38
2018-12-12T02:20:22.986Z,5.30
2018-12-12T02:21:22.989Z,5.35
2018-12-12T02:23:15.906Z,5.31
2018-12-12T02:24:15.893Z,5.31
2018-12-12T02:26:08.785Z,5.31
2018-12-12T02:27:08.794Z,5.18
2018-12-12T02:29:01.696Z,5.21
2018-12-12T02:30:01.700Z,5.17
2018-12-12T02:31:54.588Z,5.09
2018-12-12T02:32:54.599Z,5.10
2018-12-12T02:34:47.499Z,5.10
2018-12-12T02:35:47.504Z,5.12
2018-12-12T02:37:40.395Z,5.07
2018-12-12T02:38:40.406Z,5.09
2018-12-12T02:40:34.298Z,5.09
2018-12-12T02:41:34.314Z,5.04
2018-12-12T02:43:27.196Z,5.03
2018-12-12T02:44:27.205Z,5.06
2018-12-12T02:46:20.600Z,5.04
2018-12-12T02:47:20.602Z,5.04
2018-12-12T02:49:13.503Z,5.03
2018-12-12T02:50:13.503Z,5.03
2018-12-12T02:52:06.393Z,5.02
2018-12-12T02:53:06.404Z,5.00
2018-12-12T02:54:59.306Z,4.96
2018-12-12T02:55:59.308Z,4.97
2018-12-12T02:57:52.204Z,4.88
2018-12-12T02:58:52.215Z,4.94
2018-12-12T03:00:45.110Z,5.03
2018-12-12T03:01:45.114Z,4.97
2018-12-12T03:03:38.010Z,4.99
2018-12-12T03:04:38.017Z,5.04
2018-12-12T03:06:30.914Z,4.85
2018-12-12T03:07:30.920Z,4.92
2018-12-12T03:09:23.820Z,5.00
2018-12-12T03:10:23.821Z,4.99
2018-12-12T03:12:16.712Z,4.99
2018-12-12T03:13:16.723Z,5.00
2018-12-12T03:15:09.625Z,4.91
2018-12-12T03:16:09.626Z,4.91
2018-12-12T03:18:02.518Z,4.80
2018-12-12T03:19:02.529Z,4.91
2018-12-12T03:20:55.425Z,4.77
2018-12-12T03:21:55.429Z,4.82
2018-12-12T03:23:48.331Z,4.85
2018-12-12T03:24:48.333Z,4.92
2018-12-12T03:26:41.238Z,4.86
2018-12-12T03:27:41.237Z,4.86
2018-12-12T03:29:34.135Z,4.99
2018-12-12T03:30:34.141Z,5.03
2018-12-12T03:32:27.032Z,4.97
2018-12-12T03:33:27.043Z,4.96
2018-12-12T03:35:19.944Z,4.88
2018-12-12T03:36:19.947Z,4.92
2018-12-12T03:38:12.841Z,4.96
2018-12-12T03:39:12.851Z,4.96
2018-12-12T03:41:05.755Z,5.03
2018-12-12T03:42:05.754Z,5.07
2018-12-12T03:43:58.645Z,5.13
2018-12-12T03:44:58.658Z,5.10
2018-12-12T03:46:51.556Z,5.12
2018-12-12T03:47:51.558Z,5.18
2018-12-12T03:49:44.460Z,5.15
2018-12-12T03:50:44.464Z,5.21
2018-12-12T03:52:37.357Z,5.17
2018-12-12T03:53:37.365Z,5.18
2018-12-12T03:55:30.262Z,5.25
2018-12-12T03:56:30.283Z,5.18
2018-12-12T03:58:23.159Z,5.27
2018-12-12T03:59:23.169Z,5.27
2018-12-12T04:01:16.069Z,5.12
2018-12-12T04:02:16.073Z,5.12
2018-12-12T04:04:08.963Z,5.12
2018-12-12T04:05:08.976Z,5.12
2018-12-12T04:07:01.877Z,5.24
2018-12-12T04:08:01.876Z,5.13
2018-12-12T04:09:54.776Z,5.27
2018-12-12T04:10:54.778Z,5.21
2018-12-12T04:12:47.677Z,5.38
2018-12-12T04:13:47.682Z,5.27
2018-12-12T04:15:40.585Z,5.30
2018-12-12T04:16:40.585Z,5.33
2018-12-12T04:18:33.478Z,5.24
2018-12-12T04:19:33.499Z,5.35
2018-12-12T04:21:26.391Z,5.39
2018-12-12T04:22:26.396Z,5.42
2018-12-12T04:24:19.288Z,5.42
2018-12-12T04:25:19.307Z,5.42
2018-12-12T04:27:12.201Z,5.42
2018-12-12T04:28:12.203Z,5.42
2018-12-12T04:30:05.099Z,5.38
2018-12-12T04:31:05.113Z,5.45
2018-12-12T04:32:57.994Z,5.36
2018-12-12T04:33:58.005Z,5.39
2018-12-12T04:35:50.905Z,5.45
2018-12-12T04:36:50.913Z,5.51
2018-12-12T04:38:43.801Z,5.45
2018-12-12T04:39:43.813Z,5.46
2018-12-12T04:41:36.715Z,5.38
2018-12-12T04:42:36.714Z,5.42
2018-12-12T04:44:29.606Z,5.46
2018-12-12T04:45:29.618Z,5.36
2018-12-12T04:47:22.522Z,5.45
2018-12-12T04:48:22.527Z,5.43
2018-12-12T04:50:15.424Z,5.49
2018-12-12T04:51:15.429Z,5.49
2018-12-12T04:53:10.577Z,5.51
2018-12-12T04:54:10.540Z,5.54
2018-12-12T04:56:03.934Z,5.56
2018-12-12T04:57:03.937Z,5.46
2018-12-12T04:58:56.830Z,5.53
2018-12-12T04:59:56.842Z,5.51
2018-12-12T05:01:49.748Z,5.54
2018-12-12T05:02:49.745Z,5.57
2018-12-12T05:04:43.132Z,5.61
2018-12-12T05:05:43.150Z,5.60
2018-12-12T05:07:36.043Z,5.56
2018-12-12T05:08:36.046Z,5.64
2018-12-12T05:10:28.947Z,5.67
2018-12-12T05:11:28.956Z,5.58
2018-12-12T05:13:21.841Z,5.65
2018-12-12T05:14:21.854Z,5.65
2018-12-12T05:16:14.955Z,5.61
2018-12-12T05:17:14.959Z,5.60
2018-12-12T05:19:07.853Z,5.63
2018-12-12T05:20:07.869Z,5.63
2018-12-12T05:22:00.862Z,5.58
2018-12-12T05:23:00.765Z,5.61
2018-12-12T05:24:53.658Z,5.58
2018-12-12T05:25:53.669Z,5.61
2018-12-12T05:27:46.570Z,5.51
2018-12-12T05:28:46.574Z,5.54
2018-12-12T05:30:39.474Z,5.51
2018-12-12T05:31:39.477Z,5.46
2018-12-12T05:33:32.371Z,5.40
2018-12-12T05:34:32.381Z,5.35
2018-12-12T05:36:25.281Z,5.42
2018-12-12T05:37:25.286Z,5.42
2018-12-12T05:39:18.176Z,5.42
2018-12-12T05:40:18.190Z,5.36
2018-12-12T05:42:11.089Z,5.42
2018-12-12T05:43:11.093Z,5.48
2018-12-12T05:45:03.984Z,5.40
2018-12-12T05:46:03.996Z,5.40
2018-12-12T05:47:56.897Z,5.38
2018-12-12T05:48:56.899Z,5.45
2018-12-12T05:50:50.297Z,5.40
2018-12-12T05:51:50.298Z,5.45
2018-12-12T05:53:43.192Z,5.38
2018-12-12T05:54:43.206Z,5.39
2018-12-12T05:56:36.103Z,5.35
2018-12-12T05:57:36.107Z,5.43
2018-12-12T05:59:28.995Z,5.49
2018-12-12T06:00:29.007Z,5.49
2018-12-12T06:02:21.908Z,5.40
2018-12-12T06:03:21.909Z,5.45
2018-12-12T06:05:14.802Z,5.49
2018-12-12T06:06:14.815Z,5.45
2018-12-12T06:08:07.716Z,5.48
2018-12-12T06:09:07.716Z,5.46
2018-12-12T06:11:00.618Z,5.53
2018-12-12T06:12:00.621Z,5.60
2018-12-12T06:13:53.514Z,5.57
2018-12-12T06:14:53.523Z,5.49
2018-12-12T06:16:46.425Z,5.51
2018-12-12T06:17:46.430Z,5.60
2018-12-12T06:19:39.322Z,5.61
2018-12-12T06:20:39.333Z,5.58
2018-12-12T06:22:37.556Z,5.67
2018-12-12T06:23:32.238Z,5.71
2018-12-12T06:25:25.137Z,5.71
2018-12-12T06:26:25.223Z,5.56
2018-12-12T06:28:18.046Z,5.71
2018-12-12T06:29:18.047Z,5.61
2018-12-12T06:31:10.951Z,5.72
2018-12-12T06:32:10.956Z,5.79
2018-12-12T06:34:03.848Z,5.74
2018-12-12T06:35:03.861Z,5.79
2018-12-12T06:36:56.761Z,5.82
2018-12-12T06:37:56.764Z,5.68
2018-12-12T06:39:49.653Z,5.72
2018-12-12T06:40:49.665Z,5.64
2018-12-12T06:42:42.565Z,5.54
2018-12-12T06:43:42.568Z,5.60
2018-12-12T06:45:35.458Z,5.49
2018-12-12T06:46:35.470Z,5.54
2018-12-12T06:48:29.367Z,5.54
2018-12-12T06:49:29.372Z,5.54
2018-12-12T06:51:22.273Z,5.48
2018-12-12T06:52:22.275Z,5.42
2018-12-12T06:54:15.171Z,5.49
2018-12-12T06:55:15.179Z,5.46
2018-12-12T06:57:08.080Z,5.48
2018-12-12T06:58:08.081Z,5.49
2018-12-12T07:00:01.467Z,5.48
2018-12-12T07:01:01.479Z,5.51
2018-12-12T07:02:54.385Z,5.54
2018-12-12T07:03:54.383Z,5.49
2018-12-12T07:05:47.274Z,5.54
2018-12-12T07:06:47.287Z,5.51
2018-12-12T07:08:40.185Z,5.56
2018-12-12T07:09:40.189Z,5.46
2018-12-12T07:11:33.089Z,5.56
2018-12-12T07:12:33.090Z,5.63
2018-12-12T07:14:25.983Z,5.54
2018-12-12T07:15:25.994Z,5.58
2018-12-12T07:17:18.894Z,5.57
2018-12-12T07:18:18.898Z,5.64
2018-12-12T07:20:11.794Z,5.64
2018-12-12T07:21:11.802Z,5.63
2018-12-12T07:23:04.701Z,5.71
2018-12-12T07:24:04.709Z,5.67
2018-12-12T07:25:57.595Z,5.65
2018-12-12T07:26:57.606Z,5.72
2018-12-12T07:28:50.507Z,5.74
2018-12-12T07:29:50.511Z,5.72
2018-12-12T07:31:43.413Z,5.75
2018-12-12T07:32:43.416Z,5.58
2018-12-12T07:34:36.308Z,5.75
2018-12-12T07:35:36.317Z,5.75
2018-12-12T07:37:29.220Z,5.67
2018-12-12T07:38:29.221Z,5.71
2018-12-12T07:40:22.113Z,5.68
2018-12-12T07:41:22.126Z,5.63
2018-12-12T07:43:15.026Z,5.65
2018-12-12T07:44:15.029Z,5.64
2018-12-12T07:46:07.921Z,5.61
2018-12-12T07:47:07.932Z,5.54
2018-12-12T07:49:00.833Z,5.51
2018-12-12T07:50:00.896Z,5.39
2018-12-12T07:51:54.229Z,5.49
2018-12-12T07:52:54.233Z,5.46
2018-12-12T07:54:47.126Z,5.45
2018-12-12T07:55:47.235Z,5.39
2018-12-12T07:57:40.535Z,5.36
2018-12-12T07:58:40.535Z,5.45
2018-12-12T08:00:33.426Z,5.40
2018-12-12T08:01:33.440Z,5.46
2018-12-12T08:03:26.335Z,5.43
2018-12-12T08:04:26.339Z,5.38
2018-12-12T08:06:19.233Z,5.53
2018-12-12T08:07:19.243Z,5.57
2018-12-12T08:09:12.143Z,5.46
2018-12-12T08:10:12.147Z,5.49
2018-12-12T08:12:05.045Z,5.54
2018-12-12T08:13:05.047Z,5.48
2018-12-12T08:14:58.437Z,5.61
2018-12-12T08:15:58.446Z,5.61
2018-12-12T08:17:51.347Z,5.61
2018-12-12T08:18:51.351Z,5.64
2018-12-12T08:20:44.242Z,5.63
2018-12-12T08:21:44.256Z,5.58
2018-12-12T08:23:37.154Z,5.74
2018-12-12T08:24:37.156Z,5.72
2018-12-12T08:26:30.048Z,5.74
2018-12-12T08:27:30.060Z,5.76
2018-12-12T08:29:22.961Z,5.81
2018-12-12T08:30:22.964Z,5.83
2018-12-12T08:32:15.864Z,5.81
2018-12-12T08:33:15.869Z,5.81
2018-12-12T08:35:08.765Z,5.86
2018-12-12T08:36:08.781Z,5.82
2018-12-12T08:38:01.678Z,5.91
2018-12-12T08:39:01.680Z,5.90
2018-12-12T08:40:54.574Z,5.86
2018-12-12T08:41:54.586Z,5.89
2018-12-12T08:43:47.483Z,5.90
2018-12-12T08:44:47.489Z,5.91
2018-12-12T08:46:40.883Z,5.97
2018-12-12T08:47:40.895Z,5.89
2018-12-12T08:49:33.793Z,5.91
2018-12-12T08:50:33.796Z,5.93
2018-12-12T08:52:26.699Z,5.97
2018-12-12T08:53:26.701Z,5.90
2018-12-12T08:55:19.595Z,5.86
2018-12-12T08:56:19.606Z,5.97
2018-12-12T08:58:12.509Z,5.89
2018-12-12T08:59:12.514Z,5.94
2018-12-12T09:01:05.408Z,5.90
2018-12-12T09:02:05.548Z,6.00
2018-12-12T09:03:58.316Z,5.93
2018-12-12T09:04:58.319Z,5.93
2018-12-12T09:06:51.209Z,5.94
2018-12-12T09:07:51.274Z,5.97
2018-12-12T09:09:44.121Z,5.99
2018-12-12T09:10:44.125Z,6.08
2018-12-12T09:12:37.028Z,6.14
2018-12-12T09:13:37.029Z,6.11
2018-12-12T09:15:29.922Z,6.14
2018-12-12T09:16:29.934Z,6.08
2018-12-12T09:18:22.836Z,6.12
2018-12-12T09:19:22.836Z,6.12
2018-12-12T09:21:15.730Z,6.17
2018-12-12T09:22:15.742Z,6.17
2018-12-12T09:24:08.646Z,6.17
2018-12-12T09:25:08.650Z,6.11
2018-12-12T09:27:01.542Z,6.14
2018-12-12T09:28:01.557Z,6.22
2018-12-12T09:29:54.457Z,6.18
2018-12-12T09:30:54.466Z,6.22
2018-12-12T09:32:47.392Z,6.27
2018-12-12T09:33:47.366Z,6.30
2018-12-12T09:35:40.256Z,6.34
2018-12-12T09:36:40.270Z,6.28
2018-12-12T09:38:33.677Z,6.51
2018-12-12T09:39:33.680Z,6.34
2018-12-12T09:41:26.571Z,6.48
2018-12-12T09:42:26.585Z,6.43
2018-12-12T09:44:19.487Z,6.46
2018-12-12T09:45:21.784Z,6.49
2018-12-12T09:47:12.876Z,6.54
2018-12-12T09:48:19.144Z,6.44
2018-12-12T09:50:05.798Z,6.41
2018-12-12T09:51:07.255Z,6.49
2018-12-12T09:52:58.696Z,6.43
2018-12-12T09:53:58.699Z,6.48
2018-12-12T09:55:51.597Z,6.48
2018-12-12T09:56:51.604Z,6.44
2018-12-12T09:58:44.506Z,6.44
2018-12-12T09:59:44.508Z,6.43
2018-12-12T10:01:37.403Z,6.43
2018-12-12T10:02:37.416Z,6.46
2018-12-12T10:04:30.318Z,6.48
2018-12-12T10:05:30.322Z,6.43
2018-12-12T10:07:23.217Z,6.31
2018-12-12T10:08:23.228Z,6.33
2018-12-12T10:10:16.128Z,6.34
2018-12-12T10:11:16.134Z,6.18
2018-12-12T10:13:09.035Z,6.38
2018-12-12T10:14:09.039Z,6.31
2018-12-12T10:16:02.424Z,6.37
2018-12-12T10:17:02.440Z,6.48
2018-12-12T10:18:55.403Z,6.49
2018-12-12T10:19:55.344Z,6.48
2018-12-12T10:21:48.235Z,6.52
2018-12-12T10:22:48.249Z,6.67
2018-12-12T10:24:41.151Z,6.43
2018-12-12T10:25:41.154Z,6.44
2018-12-12T10:27:34.049Z,6.46
2018-12-12T10:28:34.057Z,6.43
2018-12-12T10:30:26.960Z,6.48
2018-12-12T10:31:26.964Z,6.43
2018-12-12T10:33:19.866Z,6.46
2018-12-12T10:34:19.922Z,6.44
2018-12-12T10:36:12.765Z,6.48
2018-12-12T10:37:12.771Z,6.54
2018-12-12T10:39:05.684Z,6.49
2018-12-12T10:40:05.679Z,6.49
2018-12-12T10:41:58.573Z,6.51
2018-12-12T10:42:58.584Z,6.58
2018-12-12T10:44:51.486Z,6.49
2018-12-12T10:45:51.489Z,6.43
2018-12-12T10:47:44.384Z,6.48
2018-12-12T10:48:44.397Z,6.55
2018-12-12T10:50:37.303Z,6.55
2018-12-12T10:51:37.306Z,6.59
2018-12-12T10:53:30.208Z,6.49
2018-12-12T10:54:30.212Z,6.44
2018-12-12T10:56:23.105Z,6.46
2018-12-12T10:57:23.119Z,6.52
2018-12-12T10:59:16.018Z,6.46
2018-12-12T11:00:16.022Z,6.37
2018-12-12T11:02:08.915Z,6.27
2018-12-12T11:03:08.928Z,6.31
2018-12-12T11:05:01.839Z,6.27
2018-12-12T11:06:01.834Z,6.33
2018-12-12T11:07:54.727Z,6.28
2018-12-12T11:08:54.739Z,6.28
2018-12-12T11:10:48.136Z,6.19
2018-12-12T11:11:48.140Z,6.22
2018-12-12T11:13:41.044Z,6.21
2018-12-12T11:14:41.044Z,6.21
2018-12-12T11:16:33.937Z,6.17
2018-12-12T11:17:33.949Z,6.19
2018-12-12T11:19:26.848Z,6.17
2018-12-12T11:20:26.857Z,6.11
2018-12-12T11:22:19.748Z,6.11
2018-12-12T11:23:19.757Z,6.15
2018-12-12T11:25:12.659Z,6.27
2018-12-12T11:26:12.662Z,6.21
2018-12-12T11:28:05.561Z,6.37
2018-12-12T11:29:05.576Z,6.41
2018-12-12T11:30:58.670Z,6.55
2018-12-12T11:31:58.674Z,6.55
2018-12-12T11:33:51.574Z,6.54
2018-12-12T11:34:51.575Z,6.66
2018-12-12T11:36:44.960Z,6.79
2018-12-12T11:37:44.975Z,6.71
2018-12-12T11:39:37.875Z,6.80
2018-12-12T11:40:37.877Z,6.84
2018-12-12T11:42:30.773Z,6.71
2018-12-12T11:43:30.786Z,6.76
2018-12-12T11:45:23.686Z,6.66
2018-12-12T11:46:23.687Z,6.73
2018-12-12T11:48:16.583Z,6.66
2018-12-12T11:49:16.594Z,6.71
2018-12-12T11:51:09.495Z,6.87
2018-12-12T11:52:09.498Z,6.76
2018-12-12T11:54:02.401Z,6.84
2018-12-12T11:55:02.410Z,6.84
2018-12-12T11:56:55.299Z,6.76
2018-12-12T11:57:55.311Z,6.80
2018-12-12T11:59:48.213Z,6.79
2018-12-12T12:00:48.215Z,6.76
2018-12-12T12:02:41.107Z,6.85
2018-12-12T12:03:41.119Z,6.84
2018-12-12T12:05:34.020Z,6.87
2018-12-12T12:06:34.025Z,6.87
2018-12-12T12:08:26.922Z,6.87
2018-12-12T12:09:26.929Z,6.97
2018-12-12T12:11:19.829Z,6.84
2018-12-12T12:12:19.834Z,6.97
2018-12-12T12:14:12.733Z,6.99
2018-12-12T12:15:12.737Z,6.97
2018-12-12T12:17:05.633Z,6.95
2018-12-12T12:18:05.642Z,6.98
2018-12-12T12:19:58.546Z,7.06
2018-12-12T12:20:58.549Z,6.99
2018-12-12T12:22:51.441Z,6.99
2018-12-12T12:23:51.453Z,6.97
2018-12-12T12:25:44.850Z,6.97
2018-12-12T12:26:44.857Z,7.02
2018-12-12T12:28:37.746Z,6.99
2018-12-12T12:29:37.757Z,6.97
2018-12-12T12:31:30.661Z,6.99
2018-12-12T12:32:30.663Z,6.99
2018-12-12T12:34:23.564Z,6.92
2018-12-12T12:35:23.566Z,7.05
2018-12-12T12:37:16.462Z,7.05
2018-12-12T12:38:16.477Z,7.06
2018-12-12T12:40:09.376Z,7.06
2018-12-12T12:41:09.378Z,7.02
2018-12-12T12:43:02.273Z,6.94
2018-12-12T12:44:02.282Z,7.03
2018-12-12T12:45:55.185Z,7.07
2018-12-12T12:46:55.186Z,6.92
2018-12-12T12:48:48.574Z,6.97
2018-12-12T12:49:48.591Z,7.06
2018-12-12T12:51:41.490Z,6.94
2018-12-12T12:52:41.492Z,7.03
2018-12-12T12:54:34.393Z,6.97
2018-12-12T12:55:34.393Z,7.07
2018-12-12T12:57:27.292Z,6.94
2018-12-12T12:58:27.302Z,7.03
2018-12-12T13:00:20.205Z,6.95
2018-12-12T13:01:20.207Z,6.89
2018-12-12T13:03:13.101Z,6.92
2018-12-12T13:04:13.119Z,7.07
2018-12-12T13:06:06.021Z,7.12
2018-12-12T13:07:06.021Z,7.07
2018-12-12T13:08:58.913Z,7.09
2018-12-12T13:09:58.928Z,7.12
2018-12-12T13:11:51.853Z,7.09
2018-12-12T13:12:51.832Z,6.92
2018-12-12T13:14:44.736Z,7.05
2018-12-12T13:15:44.738Z,6.99
2018-12-12T13:17:37.633Z,6.97
2018-12-12T13:18:37.642Z,6.99
2018-12-12T13:20:30.546Z,6.95
2018-12-12T13:21:30.551Z,6.89
2018-12-12T13:23:23.938Z,6.94
2018-12-12T13:24:23.950Z,6.95
2018-12-12T13:26:16.856Z,7.02
2018-12-12T13:27:16.856Z,6.95
2018-12-12T13:29:09.750Z,6.95
2018-12-12T13:30:09.763Z,6.87
2018-12-12T13:32:02.665Z,6.79
2018-12-12T13:33:02.672Z,6.76
2018-12-12T13:34:55.574Z,6.62
2018-12-12T13:35:55.575Z,6.71
2018-12-12T13:37:48.471Z,6.70
2018-12-12T13:38:48.484Z,6.69
2018-12-12T13:40:41.385Z,6.69
2018-12-12T13:41:41.390Z,6.71
2018-12-12T13:43:34.282Z,6.70
2018-12-12T13:44:34.295Z,6.73
2018-12-12T13:46:28.690Z,6.79
2018-12-12T13:47:28.693Z,6.67
2018-12-12T13:49:21.587Z,6.67
2018-12-12T13:50:21.598Z,6.58
2018-12-12T13:52:14.994Z,6.55
2018-12-12T13:53:14.997Z,6.64
2018-12-12T13:55:07.903Z,6.58
2018-12-12T13:56:07.903Z,6.59
2018-12-12T13:58:00.796Z,6.34
2018-12-12T13:59:00.810Z,6.43
2018-12-12T14:00:53.713Z,6.44
2018-12-12T14:01:53.714Z,6.40
2018-12-12T14:03:46.604Z,6.33
2018-12-12T14:04:46.620Z,6.28
2018-12-12T14:06:40.010Z,6.25
2018-12-12T14:07:40.016Z,6.14
2018-12-12T14:09:32.905Z,6.27
2018-12-12T14:10:32.917Z,6.19
2018-12-12T14:12:26.315Z,6.40
2018-12-12T14:13:26.319Z,6.36
2018-12-12T14:15:19.221Z,6.31
2018-12-12T14:16:19.225Z,6.41
2018-12-12T14:18:12.117Z,6.46
2018-12-12T14:19:12.126Z,6.52
2018-12-12T14:21:05.536Z,6.52
2018-12-12T14:22:05.535Z,6.52
2018-12-12T14:23:58.922Z,6.55
2018-12-12T14:24:58.932Z,6.43
2018-12-12T14:26:51.834Z,6.44
2018-12-12T14:27:51.838Z,6.44
2018-12-12T14:29:45.222Z,6.34
2018-12-12T14:30:45.235Z,6.36
2018-12-12T14:32:38.632Z,6.37
2018-12-12T14:33:38.634Z,6.33
2018-12-12T14:35:31.536Z,6.38
2018-12-12T14:36:31.537Z,6.38
2018-12-12T14:38:25.007Z,6.31
2018-12-12T14:39:24.944Z,6.31
2018-12-12T14:41:17.847Z,6.19
2018-12-12T14:42:17.849Z,6.21
2018-12-12T14:44:10.741Z,6.14
2018-12-12T14:45:10.752Z,6.21
2018-12-12T14:47:03.654Z,6.08
2018-12-12T14:48:03.658Z,6.09
2018-12-12T14:49:57.042Z,6.08
2018-12-12T14:50:57.054Z,6.03
2018-12-12T14:52:49.957Z,6.03
2018-12-12T14:53:49.960Z,5.99
2018-12-12T14:55:42.859Z,5.99
2018-12-12T14:56:42.866Z,6.03
2018-12-12T14:58:35.759Z,5.99
2018-12-12T14:59:35.772Z,6.01
2018-12-12T15:01:28.670Z,5.91
2018-12-12T15:02:28.672Z,5.90
2018-12-12T15:04:21.567Z,5.89
2018-12-12T15:05:21.577Z,5.85
2018-12-12T15:07:14.478Z,5.82
2018-12-12T15:08:14.483Z,5.78
2018-12-12T15:10:07.374Z,5.82
2018-12-12T15:11:07.390Z,5.79
2018-12-12T15:13:00.302Z,5.79
2018-12-12T15:14:00.287Z,5.78
2018-12-12T15:15:54.187Z,5.75
2018-12-12T15:16:54.190Z,5.72
2018-12-12T15:18:47.085Z,5.65
2018-12-12T15:19:47.094Z,5.60
2018-12-12T15:21:40.540Z,5.56
2018-12-12T15:22:40.540Z,5.56
2018-12-12T15:24:35.421Z,5.49
2018-12-12T15:25:33.936Z,5.53
2018-12-12T15:27:26.839Z,5.51
2018-12-12T15:28:26.842Z,5.56
2018-12-12T15:30:19.733Z,5.48
2018-12-12T15:31:19.745Z,5.49
2018-12-12T15:33:12.644Z,5.49
2018-12-12T15:34:12.647Z,5.42
2018-12-12T15:36:06.920Z,5.53
2018-12-12T15:37:06.921Z,5.40
2018-12-12T15:38:59.814Z,5.42
2018-12-12T15:39:59.826Z,5.46
2018-12-12T15:41:54.217Z,5.45
2018-12-12T15:42:54.218Z,5.45
2018-12-12T15:44:47.112Z,5.42
2018-12-12T15:45:47.128Z,5.36
2018-12-12T15:47:40.022Z,5.35
2018-12-12T15:48:40.025Z,5.27
2018-12-12T15:50:32.922Z,5.35
2018-12-12T15:51:32.934Z,5.18
2018-12-12T15:53:25.831Z,5.21
2018-12-12T15:54:25.834Z,5.15
2018-12-12T15:56:19.246Z,5.18
2018-12-12T15:57:19.247Z,5.20
2018-12-12T15:59:12.190Z,5.12
2018-12-12T16:00:12.152Z,5.17
2018-12-12T16:02:05.054Z,5.12
2018-12-12T16:03:05.054Z,5.06
2018-12-12T16:04:58.444Z,5.12
2018-12-12T16:05:58.451Z,5.03
2018-12-12T16:07:51.352Z,5.06
2018-12-12T16:08:51.355Z,5.10
2018-12-12T16:10:44.246Z,5.03
2018-12-12T16:11:44.258Z,5.06
2018-12-12T16:13:37.159Z,5.17
2018-12-12T16:14:37.161Z,5.09
2018-12-12T16:16:30.060Z,5.17
2018-12-12T16:17:30.062Z,5.07
2018-12-12T16:19:22.955Z,5.15
2018-12-12T16:20:22.967Z,5.22
2018-12-12T16:22:15.864Z,5.21
2018-12-12T16:23:15.867Z,5.17
2018-12-12T16:25:08.759Z,5.22
2018-12-12T16:26:08.774Z,5.22
2018-12-12T16:28:01.679Z,5.13
2018-12-12T16:29:01.679Z,5.22
2018-12-12T16:30:54.571Z,5.18
2018-12-12T16:31:54.584Z,5.15
2018-12-12T16:33:47.487Z,5.13
2018-12-12T16:34:47.490Z,5.15
2018-12-12T16:36:40.387Z,5.12
2018-12-12T16:37:40.390Z,5.06
2018-12-12T16:39:33.281Z,5.03
2018-12-12T16:40:33.292Z,5.03
2018-12-12T16:42:26.192Z,4.99
2018-12-12T16:43:26.194Z,4.97
2018-12-12T16:45:19.113Z,4.94
2018-12-12T16:46:19.124Z,4.86
2018-12-12T16:48:12.019Z,4.94
2018-12-12T16:49:12.021Z,4.91
2018-12-12T16:51:04.914Z,4.96
2018-12-12T16:52:04.923Z,4.89
2018-12-12T16:53:57.821Z,4.85
2018-12-12T16:54:57.823Z,4.84
2018-12-12T16:56:50.723Z,4.84
2018-12-12T16:57:50.727Z,4.77
2018-12-12T16:59:43.617Z,4.69
2018-12-12T17:00:43.627Z,4.73
2018-12-12T17:02:36.529Z,4.78
2018-12-12T17:03:36.530Z,4.65
2018-12-12T17:05:29.420Z,4.54
2018-12-12T17:06:29.433Z,4.62
2018-12-12T17:08:22.331Z,4.54
2018-12-12T17:09:22.333Z,4.47
2018-12-12T17:11:15.224Z,4.51
2018-12-12T17:12:15.235Z,4.51
2018-12-12T17:14:08.626Z,4.42
2018-12-12T17:15:08.632Z,4.36
2018-12-12T17:17:01.531Z,4.30
2018-12-12T17:18:01.537Z,4.40
2018-12-12T17:19:54.428Z,4.30
2018-12-12T17:20:54.434Z,4.37
2018-12-12T17:22:47.331Z,4.41
2018-12-12T17:23:47.334Z,4.40
2018-12-12T17:25:40.225Z,4.50
2018-12-12T17:26:40.236Z,4.50
2018-12-12T17:28:33.133Z,4.41
2018-12-12T17:29:33.135Z,4.44
2018-12-12T17:31:26.026Z,4.41
2018-12-12T17:32:26.038Z,4.34
2018-12-12T17:34:18.932Z,4.34
2018-12-12T17:35:18.936Z,4.37
2018-12-12T17:37:12.215Z,4.33
2018-12-12T17:38:11.853Z,4.29
2018-12-12T17:40:04.726Z,4.26
2018-12-12T17:41:04.735Z,4.20
2018-12-12T17:42:57.635Z,4.23
2018-12-12T17:43:57.636Z,4.11
2018-12-12T17:45:51.025Z,4.08
2018-12-12T17:46:51.033Z,4.00
2018-12-12T17:48:43.929Z,3.98
2018-12-12T17:49:43.931Z,3.98
2018-12-12T17:51:36.843Z,3.91
2018-12-12T17:52:36.847Z,3.80
2018-12-12T17:54:29.803Z,3.78
2018-12-12T17:55:29.753Z,3.75
2018-12-12T17:57:22.648Z,3.72
2018-12-12T17:58:22.651Z,3.62
2018-12-12T18:00:15.587Z,3.69
2018-12-12T18:01:15.615Z,3.60
2018-12-12T18:03:08.476Z,3.54
2018-12-12T18:04:08.481Z,3.55
2018-12-12T18:06:01.366Z,3.55
2018-12-12T18:07:01.379Z,3.52
2018-12-12T18:08:54.284Z,3.48
2018-12-12T18:09:54.286Z,3.40
2018-12-12T18:11:47.200Z,3.43
2018-12-12T18:12:47.298Z,3.47
2018-12-12T18:14:40.102Z,3.36
2018-12-12T18:15:40.106Z,3.45
2018-12-12T18:17:33.213Z,3.36
2018-12-12T18:18:33.040Z,3.32
2018-12-12T18:20:26.014Z,3.43
2018-12-12T18:21:26.024Z,3.42
2018-12-12T18:23:19.107Z,3.40
2018-12-12T18:24:18.964Z,3.43
2018-12-12T18:26:12.004Z,3.47
2018-12-12T18:27:12.016Z,3.48
2018-12-12T18:29:04.939Z,3.61
2018-12-12T18:30:05.107Z,3.50
2018-12-12T18:31:58.331Z,3.55
2018-12-12T18:32:58.339Z,3.57
2018-12-12T18:34:51.765Z,3.54
2018-12-12T18:35:51.764Z,3.54
2018-12-12T18:37:46.033Z,3.55
2018-12-12T18:38:45.685Z,3.62
2018-12-12T18:40:38.646Z,3.58
2018-12-12T18:41:38.650Z,3.60
2018-12-12T18:43:31.517Z,3.65
2018-12-12T18:44:31.521Z,3.61
2018-12-12T18:46:24.402Z,3.75
2018-12-12T18:47:24.413Z,3.68
2018-12-12T18:49:17.344Z,3.78
2018-12-12T18:50:17.344Z,3.78
2018-12-12T18:52:10.239Z,3.69
2018-12-12T18:53:10.246Z,3.78
2018-12-12T18:55:03.673Z,3.75
2018-12-12T18:56:03.696Z,3.73
2018-12-12T18:57:56.566Z,3.73
2018-12-12T18:58:56.574Z,3.69
2018-12-12T19:00:49.507Z,3.78
2018-12-12T19:01:49.508Z,3.78
2018-12-12T19:03:43.280Z,3.86
2018-12-12T19:04:43.273Z,3.86
2018-12-12T19:06:37.014Z,3.91
2018-12-12T19:07:37.021Z,3.86
2018-12-12T19:09:29.996Z,3.93
2018-12-12T19:10:29.997Z,3.98